sensor_id;sensor_type;location;lat;lon;timestamp;noise_LAeq;noise_LA_min;noise_LA_max;noise_LA01;noise_LA95
67308;Laerm;57662;51.436;5.978;2023-03-16T00:00:00;42.56;35.93;54.63;;
67308;Laerm;57662;51.436;5.978;2023-03-16T00:00:11;36.40;33.78;41.36;;
67308;Laerm;57662;51.436;5.978;2023-03-16T00:00:22;35.57;33.33;42.88;;
67308;Laerm;57662;51.436;5.978;2023-03-16T00:00:33;34.58;33.18;36.32;;
67308;Laerm;57662;51.436;5.978;2023-03-16T00:00:44;34.39;32.94;35.74;;
67308;Laerm;57662;51.436;5.978;2023-03-16T00:00:54;34.27;32.81;35.52;;
67308;Laerm;57662;51.436;5.978;2023-03-16T00:01:05;34.06;32.94;35.94;;
67308;Laerm;57662;51.436;5.978;2023-03-16T00:01:16;34.39;32.80;36.09;;
67308;Laerm;57662;51.436;5.978;2023-03-16T00:01:26;34.47;33.06;36.01;;
67308;Laerm;57662;51.436;5.978;2023-03-16T00:01:37;34.42;32.80;35.95;;
67308;Laerm;57662;51.436;5.978;2023-03-16T00:01:47;34.42;32.98;35.93;;
67308;Laerm;57662;51.436;5.978;2023-03-16T00:01:57;34.29;32.77;36.00;;
67308;Laerm;57662;51.436;5.978;2023-03-16T00:02:08;34.70;33.06;36.36;;
67308;Laerm;57662;51.436;5.978;2023-03-16T00:02:19;34.92;33.34;37.10;;
67308;Laerm;57662;51.436;5.978;2023-03-16T00:02:29;35.65;33.99;37.83;;
67308;Laerm;57662;51.436;5.978;2023-03-16T00:02:40;34.95;33.34;36.77;;
67308;Laerm;57662;51.436;5.978;2023-03-16T00:02:50;35.76;33.77;38.08;;
67308;Laerm;57662;51.436;5.978;2023-03-16T00:03:01;34.74;33.59;35.83;;
67308;Laerm;57662;51.436;5.978;2023-03-16T00:03:11;34.37;33.05;36.02;;
67308;Laerm;57662;51.436;5.978;2023-03-16T00:03:28;34.54;32.72;37.48;;
67308;Laerm;57662;51.436;5.978;2023-03-16T00:03:39;34.58;33.03;36.37;;
67308;Laerm;57662;51.436;5.978;2023-03-16T00:03:50;34.19;32.80;35.45;;
67308;Laerm;57662;51.436;5.978;2023-03-16T00:04:00;33.97;32.65;35.47;;
67308;Laerm;57662;51.436;5.978;2023-03-16T00:04:11;34.17;32.41;35.73;;
67308;Laerm;57662;51.436;5.978;2023-03-16T00:04:21;34.20;32.76;35.61;;
67308;Laerm;57662;51.436;5.978;2023-03-16T00:04:31;34.01;32.66;35.22;;
67308;Laerm;57662;51.436;5.978;2023-03-16T00:04:46;34.04;32.61;35.38;;
67308;Laerm;57662;51.436;5.978;2023-03-16T00:04:57;34.13;32.47;35.63;;
67308;Laerm;57662;51.436;5.978;2023-03-16T00:05:08;34.05;32.70;35.82;;
67308;Laerm;57662;51.436;5.978;2023-03-16T00:05:18;33.87;32.36;35.22;;
67308;Laerm;57662;51.436;5.978;2023-03-16T00:05:29;33.92;32.72;35.20;;
67308;Laerm;57662;51.436;5.978;2023-03-16T00:05:39;33.91;32.56;35.15;;
67308;Laerm;57662;51.436;5.978;2023-03-16T00:05:50;33.87;32.45;35.84;;
67308;Laerm;57662;51.436;5.978;2023-03-16T00:06:01;34.19;33.00;35.80;;
67308;Laerm;57662;51.436;5.978;2023-03-16T00:06:11;33.90;32.42;35.11;;
67308;Laerm;57662;51.436;5.978;2023-03-16T00:06:21;34.22;32.75;36.18;;
67308;Laerm;57662;51.436;5.978;2023-03-16T00:06:31;33.88;31.99;35.50;;
67308;Laerm;57662;51.436;5.978;2023-03-16T00:06:42;34.02;32.04;35.33;;
67308;Laerm;57662;51.436;5.978;2023-03-16T00:06:52;34.21;32.29;36.13;;
67308;Laerm;57662;51.436;5.978;2023-03-16T00:07:06;33.95;32.60;35.82;;
67308;Laerm;57662;51.436;5.978;2023-03-16T00:07:17;33.93;32.30;35.50;;
67308;Laerm;57662;51.436;5.978;2023-03-16T00:07:27;34.09;32.65;35.77;;
67308;Laerm;57662;51.436;5.978;2023-03-16T00:07:38;33.79;32.65;35.30;;
67308;Laerm;57662;51.436;5.978;2023-03-16T00:07:48;33.94;32.54;35.51;;
67308;Laerm;57662;51.436;5.978;2023-03-16T00:07:58;34.22;32.75;35.57;;
67308;Laerm;57662;51.436;5.978;2023-03-16T00:08:08;33.86;32.19;35.05;;
67308;Laerm;57662;51.436;5.978;2023-03-16T00:08:19;34.10;32.79;35.62;;
67308;Laerm;57662;51.436;5.978;2023-03-16T00:08:29;34.30;32.34;35.50;;
67308;Laerm;57662;51.436;5.978;2023-03-16T00:08:39;33.86;32.62;35.08;;
67308;Laerm;57662;51.436;5.978;2023-03-16T00:08:52;33.68;32.42;35.48;;
67308;Laerm;57662;51.436;5.978;2023-03-16T00:09:07;33.93;32.36;35.27;;
67308;Laerm;57662;51.436;5.978;2023-03-16T00:09:18;34.04;32.60;38.48;;
67308;Laerm;57662;51.436;5.978;2023-03-16T00:09:29;34.03;32.49;41.86;;
67308;Laerm;57662;51.436;5.978;2023-03-16T00:09:42;33.98;32.44;35.24;;
67308;Laerm;57662;51.436;5.978;2023-03-16T00:09:52;33.99;32.57;35.17;;
67308;Laerm;57662;51.436;5.978;2023-03-16T00:10:03;33.74;32.15;35.07;;
67308;Laerm;57662;51.436;5.978;2023-03-16T00:10:14;34.09;32.88;35.36;;
67308;Laerm;57662;51.436;5.978;2023-03-16T00:10:24;33.96;32.67;35.38;;
67308;Laerm;57662;51.436;5.978;2023-03-16T00:10:36;34.08;32.70;35.41;;
67308;Laerm;57662;51.436;5.978;2023-03-16T00:10:46;34.14;32.72;35.36;;
67308;Laerm;57662;51.436;5.978;2023-03-16T00:10:57;34.07;32.60;35.79;;
67308;Laerm;57662;51.436;5.978;2023-03-16T00:11:08;33.90;31.92;35.33;;
67308;Laerm;57662;51.436;5.978;2023-03-16T00:11:18;33.94;32.59;35.20;;
67308;Laerm;57662;51.436;5.978;2023-03-16T00:11:28;34.30;32.51;36.22;;
67308;Laerm;57662;51.436;5.978;2023-03-16T00:11:39;35.37;33.21;50.54;;
67308;Laerm;57662;51.436;5.978;2023-03-16T00:11:49;38.39;33.34;45.82;;
67308;Laerm;57662;51.436;5.978;2023-03-16T00:12:00;46.18;42.02;49.29;;
67308;Laerm;57662;51.436;5.978;2023-03-16T00:12:15;46.95;43.00;49.70;;
67308;Laerm;57662;51.436;5.978;2023-03-16T00:12:26;71.07;46.99;75.96;;
67308;Laerm;57662;51.436;5.978;2023-03-16T00:12:36;46.86;35.04;55.67;;
67308;Laerm;57662;51.436;5.978;2023-03-16T00:12:47;34.77;32.51;37.24;;
67308;Laerm;57662;51.436;5.978;2023-03-16T00:12:57;34.45;32.88;37.61;;
67308;Laerm;57662;51.436;5.978;2023-03-16T00:13:07;34.41;32.66;38.52;;
67308;Laerm;57662;51.436;5.978;2023-03-16T00:13:18;34.10;32.42;35.53;;
67308;Laerm;57662;51.436;5.978;2023-03-16T00:13:28;33.78;32.17;35.57;;
67308;Laerm;57662;51.436;5.978;2023-03-16T00:13:39;34.01;32.45;35.84;;
67308;Laerm;57662;51.436;5.978;2023-03-16T00:13:51;34.24;33.06;35.70;;
67308;Laerm;57662;51.436;5.978;2023-03-16T00:14:02;34.51;33.05;36.37;;
67308;Laerm;57662;51.436;5.978;2023-03-16T00:14:13;34.38;32.88;36.14;;
67308;Laerm;57662;51.436;5.978;2023-03-16T00:14:23;34.48;32.79;36.01;;
67308;Laerm;57662;51.436;5.978;2023-03-16T00:14:34;34.76;33.28;36.20;;
67308;Laerm;57662;51.436;5.978;2023-03-16T00:14:45;34.50;32.85;36.29;;
67308;Laerm;57662;51.436;5.978;2023-03-16T00:14:56;34.38;32.94;36.91;;
67308;Laerm;57662;51.436;5.978;2023-03-16T00:15:06;34.90;33.43;37.31;;
67308;Laerm;57662;51.436;5.978;2023-03-16T00:15:16;34.44;32.87;35.95;;
67308;Laerm;57662;51.436;5.978;2023-03-16T00:15:27;34.20;32.79;35.93;;
67308;Laerm;57662;51.436;5.978;2023-03-16T00:15:38;33.99;32.78;36.21;;
67308;Laerm;57662;51.436;5.978;2023-03-16T00:16:06;34.18;33.07;36.02;;
67308;Laerm;57662;51.436;5.978;2023-03-16T00:16:16;34.64;32.79;37.94;;
67308;Laerm;57662;51.436;5.978;2023-03-16T00:16:27;34.42;32.87;36.49;;
67308;Laerm;57662;51.436;5.978;2023-03-16T00:16:37;34.45;32.86;36.12;;
67308;Laerm;57662;51.436;5.978;2023-03-16T00:16:48;35.58;33.87;38.85;;
67308;Laerm;57662;51.436;5.978;2023-03-16T00:16:58;35.51;33.49;37.21;;
67308;Laerm;57662;51.436;5.978;2023-03-16T00:17:09;35.24;32.43;37.84;;
67308;Laerm;57662;51.436;5.978;2023-03-16T00:17:27;35.87;32.30;40.84;;
67308;Laerm;57662;51.436;5.978;2023-03-16T00:17:38;40.22;34.68;47.90;;
67308;Laerm;57662;51.436;5.978;2023-03-16T00:17:48;34.96;33.61;36.74;;
67308;Laerm;57662;51.436;5.978;2023-03-16T00:17:58;36.42;33.54;40.32;;
67308;Laerm;57662;51.436;5.978;2023-03-16T00:18:09;36.97;33.87;40.28;;
67308;Laerm;57662;51.436;5.978;2023-03-16T00:18:19;34.75;32.90;37.39;;
67308;Laerm;57662;51.436;5.978;2023-03-16T00:18:30;34.14;33.01;35.75;;
67308;Laerm;57662;51.436;5.978;2023-03-16T00:18:48;34.25;32.77;35.93;;
67308;Laerm;57662;51.436;5.978;2023-03-16T00:18:58;34.45;33.13;35.88;;
67308;Laerm;57662;51.436;5.978;2023-03-16T00:19:08;34.09;32.63;35.17;;
67308;Laerm;57662;51.436;5.978;2023-03-16T00:19:19;34.01;32.74;35.21;;
67308;Laerm;57662;51.436;5.978;2023-03-16T00:19:32;34.15;32.82;35.80;;
67308;Laerm;57662;51.436;5.978;2023-03-16T00:19:48;34.16;32.73;35.86;;
67308;Laerm;57662;51.436;5.978;2023-03-16T00:20:00;34.33;32.35;37.19;;
67308;Laerm;57662;51.436;5.978;2023-03-16T00:20:15;34.43;32.70;35.79;;
67308;Laerm;57662;51.436;5.978;2023-03-16T00:20:26;34.10;32.45;35.41;;
67308;Laerm;57662;51.436;5.978;2023-03-16T00:20:37;34.26;32.63;36.22;;
67308;Laerm;57662;51.436;5.978;2023-03-16T00:20:50;34.78;33.51;36.11;;
67308;Laerm;57662;51.436;5.978;2023-03-16T00:21:01;34.27;32.80;35.60;;
67308;Laerm;57662;51.436;5.978;2023-03-16T00:21:11;34.25;32.83;35.33;;
67308;Laerm;57662;51.436;5.978;2023-03-16T00:21:22;34.09;32.54;35.50;;
67308;Laerm;57662;51.436;5.978;2023-03-16T00:21:33;33.99;32.90;35.76;;
67308;Laerm;57662;51.436;5.978;2023-03-16T00:21:44;34.36;32.73;37.87;;
67308;Laerm;57662;51.436;5.978;2023-03-16T00:21:54;35.07;33.06;49.71;;
67308;Laerm;57662;51.436;5.978;2023-03-16T00:22:04;36.64;32.80;44.23;;
67308;Laerm;57662;51.436;5.978;2023-03-16T00:22:15;43.92;39.20;48.92;;
67308;Laerm;57662;51.436;5.978;2023-03-16T00:22:26;42.69;38.46;45.97;;
67308;Laerm;57662;51.436;5.978;2023-03-16T00:22:36;46.56;40.41;60.88;;
67308;Laerm;57662;51.436;5.978;2023-03-16T00:22:47;48.41;40.49;56.86;;
67308;Laerm;57662;51.436;5.978;2023-03-16T00:22:57;68.72;56.91;72.11;;
67308;Laerm;57662;51.436;5.978;2023-03-16T00:23:07;68.57;66.31;70.59;;
67308;Laerm;57662;51.436;5.978;2023-03-16T00:23:18;63.57;51.00;69.77;;
67308;Laerm;57662;51.436;5.978;2023-03-16T00:23:28;49.23;45.01;53.46;;
67308;Laerm;57662;51.436;5.978;2023-03-16T00:23:38;46.05;40.69;51.30;;
67308;Laerm;57662;51.436;5.978;2023-03-16T00:23:49;41.14;36.69;52.13;;
67308;Laerm;57662;51.436;5.978;2023-03-16T00:23:59;36.52;34.84;38.64;;
67308;Laerm;57662;51.436;5.978;2023-03-16T00:24:10;35.76;33.79;37.30;;
67308;Laerm;57662;51.436;5.978;2023-03-16T00:24:21;35.73;33.93;37.65;;
67308;Laerm;57662;51.436;5.978;2023-03-16T00:24:34;34.96;33.20;37.14;;
67308;Laerm;57662;51.436;5.978;2023-03-16T00:24:44;34.65;33.44;36.36;;
67308;Laerm;57662;51.436;5.978;2023-03-16T00:24:54;34.64;32.42;36.41;;
67308;Laerm;57662;51.436;5.978;2023-03-16T00:25:05;34.72;32.98;38.06;;
67308;Laerm;57662;51.436;5.978;2023-03-16T00:25:15;34.43;33.02;36.12;;
67308;Laerm;57662;51.436;5.978;2023-03-16T00:25:26;34.42;32.97;35.76;;
67308;Laerm;57662;51.436;5.978;2023-03-16T00:25:36;34.26;32.48;36.54;;
67308;Laerm;57662;51.436;5.978;2023-03-16T00:25:47;34.65;33.05;42.07;;
67308;Laerm;57662;51.436;5.978;2023-03-16T00:25:58;34.37;32.92;40.41;;
67308;Laerm;57662;51.436;5.978;2023-03-16T00:26:08;35.23;32.91;45.13;;
67308;Laerm;57662;51.436;5.978;2023-03-16T00:26:19;34.81;33.26;37.19;;
67308;Laerm;57662;51.436;5.978;2023-03-16T00:26:29;35.01;33.04;40.51;;
67308;Laerm;57662;51.436;5.978;2023-03-16T00:26:40;35.06;32.86;42.34;;
67308;Laerm;57662;51.436;5.978;2023-03-16T00:26:51;34.43;32.93;39.29;;
67308;Laerm;57662;51.436;5.978;2023-03-16T00:27:03;34.73;32.42;40.10;;
67308;Laerm;57662;51.436;5.978;2023-03-16T00:27:14;35.43;32.43;40.82;;
67308;Laerm;57662;51.436;5.978;2023-03-16T00:27:24;34.52;32.54;38.26;;
67308;Laerm;57662;51.436;5.978;2023-03-16T00:27:35;34.95;32.80;37.20;;
67308;Laerm;57662;51.436;5.978;2023-03-16T00:27:45;35.14;33.28;36.89;;
67308;Laerm;57662;51.436;5.978;2023-03-16T00:27:58;34.24;32.89;35.99;;
67308;Laerm;57662;51.436;5.978;2023-03-16T00:28:11;34.19;32.70;35.38;;
67308;Laerm;57662;51.436;5.978;2023-03-16T00:28:23;34.11;32.73;35.35;;
67308;Laerm;57662;51.436;5.978;2023-03-16T00:28:34;34.06;32.48;35.69;;
67308;Laerm;57662;51.436;5.978;2023-03-16T00:28:45;34.12;32.60;38.50;;
67308;Laerm;57662;51.436;5.978;2023-03-16T00:28:55;34.39;32.92;37.80;;
67308;Laerm;57662;51.436;5.978;2023-03-16T00:29:05;34.25;32.74;35.68;;
67308;Laerm;57662;51.436;5.978;2023-03-16T00:29:16;34.14;32.98;35.33;;
67308;Laerm;57662;51.436;5.978;2023-03-16T00:29:26;33.90;32.44;35.46;;
67308;Laerm;57662;51.436;5.978;2023-03-16T00:29:36;33.89;32.56;35.14;;
67308;Laerm;57662;51.436;5.978;2023-03-16T00:29:47;33.82;32.11;35.20;;
67308;Laerm;57662;51.436;5.978;2023-03-16T00:29:58;34.05;32.52;35.48;;
67308;Laerm;57662;51.436;5.978;2023-03-16T00:30:08;34.38;32.79;35.71;;
67308;Laerm;57662;51.436;5.978;2023-03-16T00:30:20;34.59;32.82;37.63;;
67308;Laerm;57662;51.436;5.978;2023-03-16T00:30:31;34.79;33.04;36.80;;
67308;Laerm;57662;51.436;5.978;2023-03-16T00:30:42;34.91;33.32;37.16;;
67308;Laerm;57662;51.436;5.978;2023-03-16T00:30:56;34.31;32.80;36.89;;
67308;Laerm;57662;51.436;5.978;2023-03-16T00:31:08;34.39;32.91;35.93;;
67308;Laerm;57662;51.436;5.978;2023-03-16T00:31:20;34.33;32.80;35.82;;
67308;Laerm;57662;51.436;5.978;2023-03-16T00:31:34;37.01;33.49;41.97;;
67308;Laerm;57662;51.436;5.978;2023-03-16T00:31:44;35.73;33.29;40.03;;
67308;Laerm;57662;51.436;5.978;2023-03-16T00:31:55;34.07;31.72;35.98;;
67308;Laerm;57662;51.436;5.978;2023-03-16T00:32:05;34.28;32.73;38.35;;
67308;Laerm;57662;51.436;5.978;2023-03-16T00:32:16;33.76;32.42;35.26;;
67308;Laerm;57662;51.436;5.978;2023-03-16T00:32:27;34.09;32.38;37.50;;
67308;Laerm;57662;51.436;5.978;2023-03-16T00:32:38;34.16;32.70;38.69;;
67308;Laerm;57662;51.436;5.978;2023-03-16T00:32:48;35.54;32.43;46.96;;
67308;Laerm;57662;51.436;5.978;2023-03-16T00:32:59;34.52;32.93;37.93;;
67308;Laerm;57662;51.436;5.978;2023-03-16T00:33:10;34.07;32.67;35.37;;
67308;Laerm;57662;51.436;5.978;2023-03-16T00:33:21;34.28;32.89;36.37;;
67308;Laerm;57662;51.436;5.978;2023-03-16T00:33:32;40.22;32.83;55.44;;
67308;Laerm;57662;51.436;5.978;2023-03-16T00:33:45;34.16;32.68;35.72;;
67308;Laerm;57662;51.436;5.978;2023-03-16T00:33:55;34.28;32.74;36.25;;
67308;Laerm;57662;51.436;5.978;2023-03-16T00:34:05;34.45;32.92;40.25;;
67308;Laerm;57662;51.436;5.978;2023-03-16T00:34:15;35.05;33.45;36.56;;
67308;Laerm;57662;51.436;5.978;2023-03-16T00:34:26;35.30;33.41;38.79;;
67308;Laerm;57662;51.436;5.978;2023-03-16T00:34:39;34.89;32.83;36.65;;
67308;Laerm;57662;51.436;5.978;2023-03-16T00:34:49;34.34;32.92;35.66;;
67308;Laerm;57662;51.436;5.978;2023-03-16T00:35:00;34.41;33.10;37.19;;
67308;Laerm;57662;51.436;5.978;2023-03-16T00:35:11;34.32;32.75;36.51;;
67308;Laerm;57662;51.436;5.978;2023-03-16T00:35:21;34.44;32.74;36.36;;
67308;Laerm;57662;51.436;5.978;2023-03-16T00:35:31;34.01;32.57;35.46;;
67308;Laerm;57662;51.436;5.978;2023-03-16T00:35:47;33.89;32.41;35.15;;
67308;Laerm;57662;51.436;5.978;2023-03-16T00:36:01;34.00;32.52;35.44;;
67308;Laerm;57662;51.436;5.978;2023-03-16T00:36:11;34.24;32.89;35.57;;
67308;Laerm;57662;51.436;5.978;2023-03-16T00:36:21;37.20;32.76;46.82;;
67308;Laerm;57662;51.436;5.978;2023-03-16T00:36:32;46.04;41.12;49.98;;
67308;Laerm;57662;51.436;5.978;2023-03-16T00:36:42;44.74;37.86;48.58;;
67308;Laerm;57662;51.436;5.978;2023-03-16T00:36:53;43.51;38.28;47.66;;
67308;Laerm;57662;51.436;5.978;2023-03-16T00:37:04;46.68;40.14;53.06;;
67308;Laerm;57662;51.436;5.978;2023-03-16T00:37:15;69.48;50.92;73.10;;
67308;Laerm;57662;51.436;5.978;2023-03-16T00:37:27;73.28;69.91;75.87;;
67308;Laerm;57662;51.436;5.978;2023-03-16T00:37:38;70.76;63.18;73.35;;
67308;Laerm;57662;51.436;5.978;2023-03-16T00:37:48;60.78;53.33;69.42;;
67308;Laerm;57662;51.436;5.978;2023-03-16T00:37:58;50.91;45.34;55.46;;
67308;Laerm;57662;51.436;5.978;2023-03-16T00:38:08;46.53;43.57;50.74;;
67308;Laerm;57662;51.436;5.978;2023-03-16T00:38:19;42.14;37.64;45.62;;
67308;Laerm;57662;51.436;5.978;2023-03-16T00:38:33;38.75;36.77;40.83;;
67308;Laerm;57662;51.436;5.978;2023-03-16T00:38:44;38.72;34.96;42.71;;
67308;Laerm;57662;51.436;5.978;2023-03-16T00:38:54;35.49;33.58;37.09;;
67308;Laerm;57662;51.436;5.978;2023-03-16T00:39:04;35.95;33.62;38.95;;
67308;Laerm;57662;51.436;5.978;2023-03-16T00:39:16;36.59;34.57;38.96;;
67308;Laerm;57662;51.436;5.978;2023-03-16T00:39:26;35.13;33.42;36.76;;
67308;Laerm;57662;51.436;5.978;2023-03-16T00:39:36;34.44;32.77;35.78;;
67308;Laerm;57662;51.436;5.978;2023-03-16T00:39:46;34.86;33.10;36.66;;
67308;Laerm;57662;51.436;5.978;2023-03-16T00:39:57;34.79;33.30;36.67;;
67308;Laerm;57662;51.436;5.978;2023-03-16T00:40:07;34.54;33.13;35.83;;
67308;Laerm;57662;51.436;5.978;2023-03-16T00:40:18;34.32;32.83;35.91;;
67308;Laerm;57662;51.436;5.978;2023-03-16T00:40:28;34.46;33.15;35.80;;
67308;Laerm;57662;51.436;5.978;2023-03-16T00:40:39;35.26;33.43;40.78;;
67308;Laerm;57662;51.436;5.978;2023-03-16T00:40:49;34.47;33.30;36.08;;
67308;Laerm;57662;51.436;5.978;2023-03-16T00:41:01;34.69;32.94;36.41;;
67308;Laerm;57662;51.436;5.978;2023-03-16T00:41:14;34.23;32.69;36.33;;
67308;Laerm;57662;51.436;5.978;2023-03-16T00:41:24;34.19;32.55;37.70;;
67308;Laerm;57662;51.436;5.978;2023-03-16T00:41:35;34.07;32.62;35.16;;
67308;Laerm;57662;51.436;5.978;2023-03-16T00:41:46;34.29;32.89;35.92;;
67308;Laerm;57662;51.436;5.978;2023-03-16T00:41:57;34.07;32.07;35.26;;
67308;Laerm;57662;51.436;5.978;2023-03-16T00:42:08;34.33;32.67;35.58;;
67308;Laerm;57662;51.436;5.978;2023-03-16T00:42:18;34.18;32.78;37.77;;
67308;Laerm;57662;51.436;5.978;2023-03-16T00:42:29;34.08;32.74;35.36;;
67308;Laerm;57662;51.436;5.978;2023-03-16T00:42:40;33.91;32.46;35.24;;
67308;Laerm;57662;51.436;5.978;2023-03-16T00:42:50;34.24;32.64;35.47;;
67308;Laerm;57662;51.436;5.978;2023-03-16T00:43:01;34.55;33.46;36.08;;
67308;Laerm;57662;51.436;5.978;2023-03-16T00:43:12;34.44;33.09;35.83;;
67308;Laerm;57662;51.436;5.978;2023-03-16T00:43:22;34.26;32.80;35.54;;
67308;Laerm;57662;51.436;5.978;2023-03-16T00:43:36;35.13;33.58;37.77;;
67308;Laerm;57662;51.436;5.978;2023-03-16T00:43:54;36.06;33.56;43.71;;
67308;Laerm;57662;51.436;5.978;2023-03-16T00:44:04;34.89;33.39;36.58;;
67308;Laerm;57662;51.436;5.978;2023-03-16T00:44:15;34.31;32.53;40.63;;
67308;Laerm;57662;51.436;5.978;2023-03-16T00:44:25;34.04;32.66;35.62;;
67308;Laerm;57662;51.436;5.978;2023-03-16T00:44:36;33.75;32.08;36.96;;
67308;Laerm;57662;51.436;5.978;2023-03-16T00:44:46;34.10;32.39;37.66;;
67308;Laerm;57662;51.436;5.978;2023-03-16T00:44:57;35.16;33.29;37.38;;
67308;Laerm;57662;51.436;5.978;2023-03-16T00:45:08;34.43;32.86;36.12;;
67308;Laerm;57662;51.436;5.978;2023-03-16T00:45:18;34.35;32.76;36.61;;
67308;Laerm;57662;51.436;5.978;2023-03-16T00:45:28;33.86;32.53;36.25;;
67308;Laerm;57662;51.436;5.978;2023-03-16T00:45:39;34.46;32.65;42.45;;
67308;Laerm;57662;51.436;5.978;2023-03-16T00:45:49;34.07;32.65;35.68;;
67308;Laerm;57662;51.436;5.978;2023-03-16T00:46:01;34.07;32.50;35.43;;
67308;Laerm;57662;51.436;5.978;2023-03-16T00:46:16;33.82;32.63;35.46;;
67308;Laerm;57662;51.436;5.978;2023-03-16T00:46:26;33.98;32.64;35.15;;
67308;Laerm;57662;51.436;5.978;2023-03-16T00:46:36;34.02;32.55;36.43;;
67308;Laerm;57662;51.436;5.978;2023-03-16T00:46:47;33.76;32.15;35.62;;
67308;Laerm;57662;51.436;5.978;2023-03-16T00:46:57;33.67;32.25;35.04;;
67308;Laerm;57662;51.436;5.978;2023-03-16T00:47:08;34.03;32.82;35.50;;
67308;Laerm;57662;51.436;5.978;2023-03-16T00:47:18;33.97;32.26;35.53;;
67308;Laerm;57662;51.436;5.978;2023-03-16T00:47:29;33.90;32.63;35.22;;
67308;Laerm;57662;51.436;5.978;2023-03-16T00:47:40;34.00;32.70;35.39;;
67308;Laerm;57662;51.436;5.978;2023-03-16T00:47:51;33.67;32.05;35.18;;
67308;Laerm;57662;51.436;5.978;2023-03-16T00:48:03;34.02;32.58;35.38;;
67308;Laerm;57662;51.436;5.978;2023-03-16T00:48:13;33.95;32.41;35.33;;
67308;Laerm;57662;51.436;5.978;2023-03-16T00:48:24;33.96;32.41;36.96;;
67308;Laerm;57662;51.436;5.978;2023-03-16T00:48:34;33.78;32.55;35.25;;
67308;Laerm;57662;51.436;5.978;2023-03-16T00:48:45;33.82;32.54;35.13;;
67308;Laerm;57662;51.436;5.978;2023-03-16T00:48:56;33.78;32.41;35.09;;
67308;Laerm;57662;51.436;5.978;2023-03-16T00:49:07;33.86;32.76;35.38;;
67308;Laerm;57662;51.436;5.978;2023-03-16T00:49:18;33.87;32.26;35.71;;
67308;Laerm;57662;51.436;5.978;2023-03-16T00:49:29;33.55;31.96;35.26;;
67308;Laerm;57662;51.436;5.978;2023-03-16T00:49:43;33.89;32.66;35.56;;
67308;Laerm;57662;51.436;5.978;2023-03-16T00:49:54;33.81;32.49;35.16;;
67308;Laerm;57662;51.436;5.978;2023-03-16T00:50:05;33.79;32.41;34.99;;
67308;Laerm;57662;51.436;5.978;2023-03-16T00:50:15;33.91;32.75;35.45;;
67308;Laerm;57662;51.436;5.978;2023-03-16T00:50:25;33.78;32.54;35.10;;
67308;Laerm;57662;51.436;5.978;2023-03-16T00:50:36;33.59;31.92;39.38;;
67308;Laerm;57662;51.436;5.978;2023-03-16T00:50:46;33.60;32.19;34.87;;
67308;Laerm;57662;51.436;5.978;2023-03-16T00:50:57;33.75;32.22;35.10;;
67308;Laerm;57662;51.436;5.978;2023-03-16T00:51:08;33.59;32.24;35.34;;
67308;Laerm;57662;51.436;5.978;2023-03-16T00:51:21;33.68;31.96;38.18;;
67308;Laerm;57662;51.436;5.978;2023-03-16T00:51:32;34.50;32.47;45.33;;
67308;Laerm;57662;51.436;5.978;2023-03-16T00:51:42;34.05;32.52;35.85;;
67308;Laerm;57662;51.436;5.978;2023-03-16T00:51:55;33.98;32.54;35.50;;
67308;Laerm;57662;51.436;5.978;2023-03-16T00:52:05;33.75;32.18;36.47;;
67308;Laerm;57662;51.436;5.978;2023-03-16T00:52:16;36.92;32.49;52.04;;
67308;Laerm;57662;51.436;5.978;2023-03-16T00:52:26;36.57;32.16;53.00;;
67308;Laerm;57662;51.436;5.978;2023-03-16T00:52:37;36.19;33.14;43.71;;
67308;Laerm;57662;51.436;5.978;2023-03-16T00:52:47;38.71;34.67;48.48;;
67308;Laerm;57662;51.436;5.978;2023-03-16T00:52:58;37.25;34.59;41.20;;
67308;Laerm;57662;51.436;5.978;2023-03-16T00:53:08;36.35;34.66;38.77;;
67308;Laerm;57662;51.436;5.978;2023-03-16T00:53:18;36.90;34.31;39.78;;
67308;Laerm;57662;51.436;5.978;2023-03-16T00:53:29;39.19;35.56;42.69;;
67308;Laerm;57662;51.436;5.978;2023-03-16T00:53:41;36.01;34.02;42.32;;
67308;Laerm;57662;51.436;5.978;2023-03-16T00:53:52;36.43;33.55;40.46;;
67308;Laerm;57662;51.436;5.978;2023-03-16T00:54:02;37.27;33.40;51.91;;
67308;Laerm;57662;51.436;5.978;2023-03-16T00:54:14;41.19;35.11;44.80;;
67308;Laerm;57662;51.436;5.978;2023-03-16T00:54:24;34.82;32.82;37.28;;
67308;Laerm;57662;51.436;5.978;2023-03-16T00:54:36;38.55;33.40;45.40;;
67308;Laerm;57662;51.436;5.978;2023-03-16T00:54:47;34.97;33.19;36.73;;
67308;Laerm;57662;51.436;5.978;2023-03-16T00:54:57;34.67;33.24;36.39;;
67308;Laerm;57662;51.436;5.978;2023-03-16T00:55:08;34.38;32.64;35.58;;
67308;Laerm;57662;51.436;5.978;2023-03-16T00:55:19;34.39;33.17;35.84;;
67308;Laerm;57662;51.436;5.978;2023-03-16T00:55:29;34.28;32.60;36.68;;
67308;Laerm;57662;51.436;5.978;2023-03-16T00:55:41;34.02;32.67;39.29;;
67308;Laerm;57662;51.436;5.978;2023-03-16T00:55:52;34.12;32.64;43.01;;
67308;Laerm;57662;51.436;5.978;2023-03-16T00:56:02;34.07;32.84;35.28;;
67308;Laerm;57662;51.436;5.978;2023-03-16T00:56:15;33.95;32.50;35.16;;
67308;Laerm;57662;51.436;5.978;2023-03-16T00:56:26;33.92;31.85;35.42;;
67308;Laerm;57662;51.436;5.978;2023-03-16T00:56:36;33.73;31.99;35.20;;
67308;Laerm;57662;51.436;5.978;2023-03-16T00:56:46;33.83;32.58;35.20;;
67308;Laerm;57662;51.436;5.978;2023-03-16T00:56:57;33.56;32.31;34.79;;
67308;Laerm;57662;51.436;5.978;2023-03-16T00:57:08;33.74;32.05;35.02;;
67308;Laerm;57662;51.436;5.978;2023-03-16T00:57:19;33.79;32.57;35.94;;
67308;Laerm;57662;51.436;5.978;2023-03-16T00:57:30;34.03;32.68;36.13;;
67308;Laerm;57662;51.436;5.978;2023-03-16T00:57:40;33.95;32.57;35.33;;
67308;Laerm;57662;51.436;5.978;2023-03-16T00:57:51;33.74;32.11;35.33;;
67308;Laerm;57662;51.436;5.978;2023-03-16T00:58:01;34.04;32.41;38.31;;
67308;Laerm;57662;51.436;5.978;2023-03-16T00:58:14;34.30;32.02;44.20;;
67308;Laerm;57662;51.436;5.978;2023-03-16T00:58:24;34.98;32.43;39.89;;
67308;Laerm;57662;51.436;5.978;2023-03-16T00:58:35;33.97;32.00;35.65;;
67308;Laerm;57662;51.436;5.978;2023-03-16T00:58:46;33.42;32.25;34.64;;
67308;Laerm;57662;51.436;5.978;2023-03-16T00:58:56;33.66;32.49;34.96;;
67308;Laerm;57662;51.436;5.978;2023-03-16T00:59:06;33.71;32.49;34.84;;
67308;Laerm;57662;51.436;5.978;2023-03-16T00:59:17;33.85;32.56;35.22;;
67308;Laerm;57662;51.436;5.978;2023-03-16T00:59:29;33.81;32.58;35.35;;
67308;Laerm;57662;51.436;5.978;2023-03-16T00:59:40;33.59;32.20;34.80;;
67308;Laerm;57662;51.436;5.978;2023-03-16T00:59:50;33.53;32.04;34.93;;
67308;Laerm;57662;51.436;5.978;2023-03-16T01:00:01;33.91;32.26;35.64;;
67308;Laerm;57662;51.436;5.978;2023-03-16T01:00:21;34.41;32.99;36.89;;
67308;Laerm;57662;51.436;5.978;2023-03-16T01:00:35;34.95;33.23;37.38;;
67308;Laerm;57662;51.436;5.978;2023-03-16T01:00:45;35.04;33.46;38.20;;
67308;Laerm;57662;51.436;5.978;2023-03-16T01:00:56;35.60;33.58;38.03;;
67308;Laerm;57662;51.436;5.978;2023-03-16T01:01:09;36.59;33.95;39.97;;
67308;Laerm;57662;51.436;5.978;2023-03-16T01:01:20;36.21;34.06;38.16;;
67308;Laerm;57662;51.436;5.978;2023-03-16T01:01:31;34.90;33.10;36.63;;
67308;Laerm;57662;51.436;5.978;2023-03-16T01:01:44;34.61;32.71;39.23;;
67308;Laerm;57662;51.436;5.978;2023-03-16T01:01:55;36.79;32.58;47.72;;